sensor_id;sensor_type;location;lat;lon;timestamp;P1;durP1;ratioP1;P2;durP2;ratioP2
6269;SDS011;3168;51.684;6.954;2024-02-26T00:00:37;1.63;;;1.43;;
6269;SDS011;3168;51.684;6.954;2024-02-26T00:03:03;2.80;;;2.13;;
6269;SDS011;3168;51.684;6.954;2024-02-26T00:05:29;1.53;;;1.53;;
6269;SDS011;3168;51.684;6.954;2024-02-26T00:07:55;2.67;;;2.47;;
6269;SDS011;3168;51.684;6.954;2024-02-26T00:10:21;1.27;;;1.27;;
6269;SDS011;3168;51.684;6.954;2024-02-26T00:12:47;1.23;;;1.23;;
6269;SDS011;3168;51.684;6.954;2024-02-26T00:15:13;1.60;;;1.00;;
6269;SDS011;3168;51.684;6.954;2024-02-26T00:17:39;1.47;;;1.47;;
6269;SDS011;3168;51.684;6.954;2024-02-26T00:20:05;1.57;;;1.57;;
6269;SDS011;3168;51.684;6.954;2024-02-26T00:22:31;1.60;;;1.50;;
6269;SDS011;3168;51.684;6.954;2024-02-26T00:24:57;1.33;;;1.23;;
6269;SDS011;3168;51.684;6.954;2024-02-26T00:27:23;1.67;;;1.57;;
6269;SDS011;3168;51.684;6.954;2024-02-26T00:29:49;1.57;;;1.47;;
6269;SDS011;3168;51.684;6.954;2024-02-26T00:32:14;2.97;;;1.20;;
6269;SDS011;3168;51.684;6.954;2024-02-26T00:34:40;2.37;;;2.20;;
6269;SDS011;3168;51.684;6.954;2024-02-26T00:37:06;1.80;;;1.70;;
6269;SDS011;3168;51.684;6.954;2024-02-26T00:39:32;1.97;;;1.87;;
6269;SDS011;3168;51.684;6.954;2024-02-26T00:41:57;1.30;;;1.20;;
6269;SDS011;3168;51.684;6.954;2024-02-26T00:44:23;1.67;;;1.57;;
6269;SDS011;3168;51.684;6.954;2024-02-26T00:46:49;2.50;;;2.30;;
6269;SDS011;3168;51.684;6.954;2024-02-26T00:49:15;1.77;;;1.67;;
6269;SDS011;3168;51.684;6.954;2024-02-26T00:51:41;1.70;;;1.60;;
6269;SDS011;3168;51.684;6.954;2024-02-26T00:54:06;2.23;;;2.03;;
6269;SDS011;3168;51.684;6.954;2024-02-26T00:56:32;1.50;;;1.40;;
6269;SDS011;3168;51.684;6.954;2024-02-26T00:58:58;1.50;;;1.40;;
6269;SDS011;3168;51.684;6.954;2024-02-26T01:01:24;1.73;;;1.73;;
6269;SDS011;3168;51.684;6.954;2024-02-26T01:03:50;1.30;;;1.30;;
6269;SDS011;3168;51.684;6.954;2024-02-26T01:06:15;2.93;;;2.47;;
6269;SDS011;3168;51.684;6.954;2024-02-26T01:08:41;1.47;;;1.40;;
6269;SDS011;3168;51.684;6.954;2024-02-26T01:11:07;2.70;;;1.83;;
6269;SDS011;3168;51.684;6.954;2024-02-26T01:13:33;1.60;;;1.60;;
6269;SDS011;3168;51.684;6.954;2024-02-26T01:15:59;1.60;;;1.50;;
6269;SDS011;3168;51.684;6.954;2024-02-26T01:18:25;1.67;;;1.67;;
6269;SDS011;3168;51.684;6.954;2024-02-26T01:20:50;1.50;;;1.50;;
6269;SDS011;3168;51.684;6.954;2024-02-26T01:23:16;2.30;;;2.23;;
6269;SDS011;3168;51.684;6.954;2024-02-26T01:25:42;1.50;;;1.50;;
6269;SDS011;3168;51.684;6.954;2024-02-26T01:28:08;1.20;;;1.20;;
6269;SDS011;3168;51.684;6.954;2024-02-26T01:30:34;1.47;;;1.33;;
6269;SDS011;3168;51.684;6.954;2024-02-26T01:33:00;1.53;;;1.53;;
6269;SDS011;3168;51.684;6.954;2024-02-26T01:35:25;1.83;;;1.73;;
6269;SDS011;3168;51.684;6.954;2024-02-26T01:37:51;14.57;;;1.83;;
6269;SDS011;3168;51.684;6.954;2024-02-26T01:40:17;1.57;;;1.57;;
6269;SDS011;3168;51.684;6.954;2024-02-26T01:42:43;1.77;;;1.67;;
6269;SDS011;3168;51.684;6.954;2024-02-26T01:45:11;1.40;;;1.40;;
6269;SDS011;3168;51.684;6.954;2024-02-26T01:47:38;1.77;;;1.77;;
6269;SDS011;3168;51.684;6.954;2024-02-26T01:50:04;1.60;;;1.60;;
6269;SDS011;3168;51.684;6.954;2024-02-26T01:52:30;2.13;;;2.03;;
6269;SDS011;3168;51.684;6.954;2024-02-26T01:54:56;1.30;;;1.30;;
6269;SDS011;3168;51.684;6.954;2024-02-26T01:57:22;1.20;;;1.20;;
6269;SDS011;3168;51.684;6.954;2024-02-26T01:59:47;1.93;;;1.93;;
6269;SDS011;3168;51.684;6.954;2024-02-26T02:02:13;2.20;;;2.00;;
6269;SDS011;3168;51.684;6.954;2024-02-26T02:04:39;1.70;;;1.60;;
6269;SDS011;3168;51.684;6.954;2024-02-26T02:07:05;1.30;;;1.30;;
6269;SDS011;3168;51.684;6.954;2024-02-26T02:09:31;3.08;;;2.28;;
6269;SDS011;3168;51.684;6.954;2024-02-26T02:11:56;8.20;;;1.67;;
6269;SDS011;3168;51.684;6.954;2024-02-26T02:14:22;1.77;;;1.67;;
6269;SDS011;3168;51.684;6.954;2024-02-26T02:16:48;1.53;;;1.50;;
6269;SDS011;3168;51.684;6.954;2024-02-26T02:19:14;2.03;;;1.90;;
6269;SDS011;3168;51.684;6.954;2024-02-26T02:21:40;1.60;;;1.60;;
6269;SDS011;3168;51.684;6.954;2024-02-26T02:24:06;1.97;;;1.87;;
6269;SDS011;3168;51.684;6.954;2024-02-26T02:26:32;1.67;;;1.67;;
6269;SDS011;3168;51.684;6.954;2024-02-26T02:28:57;1.43;;;1.43;;
6269;SDS011;3168;51.684;6.954;2024-02-26T02:31:23;3.80;;;1.63;;
6269;SDS011;3168;51.684;6.954;2024-02-26T02:33:49;1.30;;;1.30;;
6269;SDS011;3168;51.684;6.954;2024-02-26T02:36:15;1.30;;;1.30;;
6269;SDS011;3168;51.684;6.954;2024-02-26T02:41:14;1.83;;;1.77;;
6269;SDS011;3168;51.684;6.954;2024-02-26T02:43:40;1.20;;;1.20;;
6269;SDS011;3168;51.684;6.954;2024-02-26T02:46:05;2.07;;;1.97;;
6269;SDS011;3168;51.684;6.954;2024-02-26T02:48:31;2.00;;;1.93;;
6269;SDS011;3168;51.684;6.954;2024-02-26T02:50:57;1.73;;;1.73;;
6269;SDS011;3168;51.684;6.954;2024-02-26T02:53:23;1.93;;;1.57;;
6269;SDS011;3168;51.684;6.954;2024-02-26T02:55:49;1.60;;;1.60;;
6269;SDS011;3168;51.684;6.954;2024-02-26T02:58:15;1.40;;;1.33;;
6269;SDS011;3168;51.684;6.954;2024-02-26T03:00:40;1.40;;;1.40;;
6269;SDS011;3168;51.684;6.954;2024-02-26T03:03:06;2.07;;;2.07;;
6269;SDS011;3168;51.684;6.954;2024-02-26T03:05:32;1.50;;;1.50;;
6269;SDS011;3168;51.684;6.954;2024-02-26T03:07:58;1.50;;;1.50;;
6269;SDS011;3168;51.684;6.954;2024-02-26T03:10:24;1.20;;;1.20;;
6269;SDS011;3168;51.684;6.954;2024-02-26T03:12:50;1.33;;;1.30;;
6269;SDS011;3168;51.684;6.954;2024-02-26T03:15:16;1.30;;;1.20;;
6269;SDS011;3168;51.684;6.954;2024-02-26T03:17:41;3.33;;;1.40;;
6269;SDS011;3168;51.684;6.954;2024-02-26T03:20:08;1.30;;;1.30;;
6269;SDS011;3168;51.684;6.954;2024-02-26T03:22:34;0.93;;;0.93;;
6269;SDS011;3168;51.684;6.954;2024-02-26T03:25:00;1.33;;;1.23;;
6269;SDS011;3168;51.684;6.954;2024-02-26T03:27:26;1.90;;;1.53;;
6269;SDS011;3168;51.684;6.954;2024-02-26T03:29:52;1.90;;;1.30;;
6269;SDS011;3168;51.684;6.954;2024-02-26T03:32:17;1.00;;;1.00;;
6269;SDS011;3168;51.684;6.954;2024-02-26T03:34:43;1.30;;;1.30;;
6269;SDS011;3168;51.684;6.954;2024-02-26T03:37:09;1.37;;;1.37;;
6269;SDS011;3168;51.684;6.954;2024-02-26T03:39:35;1.27;;;1.27;;
6269;SDS011;3168;51.684;6.954;2024-02-26T03:42:01;1.03;;;1.03;;
6269;SDS011;3168;51.684;6.954;2024-02-26T03:44:26;2.37;;;2.17;;
6269;SDS011;3168;51.684;6.954;2024-02-26T03:46:52;1.33;;;1.27;;
6269;SDS011;3168;51.684;6.954;2024-02-26T03:49:18;1.23;;;1.23;;
6269;SDS011;3168;51.684;6.954;2024-02-26T03:51:44;1.23;;;1.23;;
6269;SDS011;3168;51.684;6.954;2024-02-26T03:54:10;1.20;;;1.20;;
6269;SDS011;3168;51.684;6.954;2024-02-26T03:56:35;1.30;;;1.30;;
6269;SDS011;3168;51.684;6.954;2024-02-26T03:59:01;1.60;;;1.50;;
6269;SDS011;3168;51.684;6.954;2024-02-26T04:01:27;1.13;;;1.13;;
6269;SDS011;3168;51.684;6.954;2024-02-26T04:03:53;0.87;;;0.87;;
6269;SDS011;3168;51.684;6.954;2024-02-26T04:06:19;1.30;;;1.30;;
6269;SDS011;3168;51.684;6.954;2024-02-26T04:08:45;1.43;;;1.33;;
6269;SDS011;3168;51.684;6.954;2024-02-26T04:11:10;1.00;;;1.00;;
6269;SDS011;3168;51.684;6.954;2024-02-26T04:13:36;3.17;;;1.37;;
6269;SDS011;3168;51.684;6.954;2024-02-26T04:16:04;1.20;;;1.20;;
6269;SDS011;3168;51.684;6.954;2024-02-26T04:18:29;1.67;;;1.57;;
6269;SDS011;3168;51.684;6.954;2024-02-26T04:20:55;1.67;;;1.60;;
6269;SDS011;3168;51.684;6.954;2024-02-26T04:23:21;1.20;;;1.20;;
6269;SDS011;3168;51.684;6.954;2024-02-26T04:25:47;1.00;;;1.00;;
6269;SDS011;3168;51.684;6.954;2024-02-26T04:28:13;1.50;;;1.40;;
6269;SDS011;3168;51.684;6.954;2024-02-26T04:30:39;1.60;;;1.50;;
6269;SDS011;3168;51.684;6.954;2024-02-26T04:33:04;1.40;;;1.40;;
6269;SDS011;3168;51.684;6.954;2024-02-26T04:35:30;1.10;;;1.10;;
6269;SDS011;3168;51.684;6.954;2024-02-26T04:37:56;1.20;;;1.20;;
6269;SDS011;3168;51.684;6.954;2024-02-26T04:40:22;1.30;;;1.30;;
6269;SDS011;3168;51.684;6.954;2024-02-26T04:42:48;1.57;;;1.57;;
6269;SDS011;3168;51.684;6.954;2024-02-26T04:45:13;3.90;;;1.80;;
6269;SDS011;3168;51.684;6.954;2024-02-26T04:47:39;1.10;;;1.10;;
6269;SDS011;3168;51.684;6.954;2024-02-26T04:50:05;1.60;;;1.60;;
6269;SDS011;3168;51.684;6.954;2024-02-26T04:52:32;1.40;;;1.40;;
6269;SDS011;3168;51.684;6.954;2024-02-26T04:54:57;1.57;;;1.47;;
6269;SDS011;3168;51.684;6.954;2024-02-26T04:57:23;1.03;;;1.03;;
6269;SDS011;3168;51.684;6.954;2024-02-26T04:59:49;1.03;;;1.03;;
6269;SDS011;3168;51.684;6.954;2024-02-26T05:02:15;1.50;;;1.50;;
6269;SDS011;3168;51.684;6.954;2024-02-26T05:04:41;1.20;;;1.20;;
6269;SDS011;3168;51.684;6.954;2024-02-26T05:07:06;1.77;;;1.70;;
6269;SDS011;3168;51.684;6.954;2024-02-26T05:09:32;1.10;;;1.10;;
6269;SDS011;3168;51.684;6.954;2024-02-26T05:11:58;2.07;;;1.97;;
6269;SDS011;3168;51.684;6.954;2024-02-26T05:14:24;1.37;;;1.33;;
6269;SDS011;3168;51.684;6.954;2024-02-26T05:16:50;1.40;;;1.40;;
6269;SDS011;3168;51.684;6.954;2024-02-26T05:19:15;1.20;;;1.20;;
6269;SDS011;3168;51.684;6.954;2024-02-26T05:21:41;1.83;;;1.83;;
6269;SDS011;3168;51.684;6.954;2024-02-26T05:24:07;0.97;;;0.97;;
6269;SDS011;3168;51.684;6.954;2024-02-26T05:26:33;2.90;;;1.37;;
6269;SDS011;3168;51.684;6.954;2024-02-26T05:28:59;1.70;;;1.60;;
6269;SDS011;3168;51.684;6.954;2024-02-26T05:31:25;1.43;;;1.43;;
6269;SDS011;3168;51.684;6.954;2024-02-26T05:33:51;2.40;;;1.50;;
6269;SDS011;3168;51.684;6.954;2024-02-26T05:36:18;1.73;;;1.63;;
6269;SDS011;3168;51.684;6.954;2024-02-26T05:38:43;1.30;;;1.30;;
6269;SDS011;3168;51.684;6.954;2024-02-26T05:41:09;5.40;;;1.83;;
6269;SDS011;3168;51.684;6.954;2024-02-26T05:43:35;1.37;;;1.37;;
6269;SDS011;3168;51.684;6.954;2024-02-26T05:46:01;0.80;;;0.80;;
6269;SDS011;3168;51.684;6.954;2024-02-26T05:48:27;1.63;;;1.53;;
6269;SDS011;3168;51.684;6.954;2024-02-26T05:50:53;1.90;;;1.80;;
6269;SDS011;3168;51.684;6.954;2024-02-26T05:53:18;1.80;;;1.70;;
6269;SDS011;3168;51.684;6.954;2024-02-26T05:55:44;1.30;;;1.30;;
6269;SDS011;3168;51.684;6.954;2024-02-26T05:58:10;1.40;;;1.40;;
6269;SDS011;3168;51.684;6.954;2024-02-26T06:00:36;1.60;;;1.57;;
6269;SDS011;3168;51.684;6.954;2024-02-26T06:03:02;1.60;;;1.60;;
6269;SDS011;3168;51.684;6.954;2024-02-26T06:05:27;1.60;;;1.60;;
6269;SDS011;3168;51.684;6.954;2024-02-26T06:07:53;1.73;;;1.63;;
6269;SDS011;3168;51.684;6.954;2024-02-26T06:10:19;1.20;;;1.20;;
6269;SDS011;3168;51.684;6.954;2024-02-26T06:12:45;1.30;;;1.30;;
6269;SDS011;3168;51.684;6.954;2024-02-26T06:15:11;1.50;;;1.40;;
6269;SDS011;3168;51.684;6.954;2024-02-26T06:17:37;1.23;;;1.23;;
6269;SDS011;3168;51.684;6.954;2024-02-26T06:20:03;1.83;;;1.83;;
6269;SDS011;3168;51.684;6.954;2024-02-26T06:22:29;1.50;;;1.50;;
6269;SDS011;3168;51.684;6.954;2024-02-26T06:24:54;1.70;;;1.50;;
6269;SDS011;3168;51.684;6.954;2024-02-26T06:27:20;2.20;;;2.10;;
6269;SDS011;3168;51.684;6.954;2024-02-26T06:29:46;2.37;;;2.17;;
6269;SDS011;3168;51.684;6.954;2024-02-26T06:32:12;2.00;;;1.90;;
6269;SDS011;3168;51.684;6.954;2024-02-26T06:34:38;3.20;;;1.80;;
6269;SDS011;3168;51.684;6.954;2024-02-26T06:37:04;2.20;;;2.10;;
6269;SDS011;3168;51.684;6.954;2024-02-26T06:39:30;1.33;;;1.33;;
6269;SDS011;3168;51.684;6.954;2024-02-26T06:41:56;1.10;;;1.10;;
6269;SDS011;3168;51.684;6.954;2024-02-26T06:44:21;1.57;;;1.57;;
6269;SDS011;3168;51.684;6.954;2024-02-26T06:46:47;1.83;;;1.57;;
6269;SDS011;3168;51.684;6.954;2024-02-26T06:49:13;1.87;;;1.67;;
6269;SDS011;3168;51.684;6.954;2024-02-26T06:51:39;1.87;;;1.80;;
6269;SDS011;3168;51.684;6.954;2024-02-26T06:54:05;1.57;;;1.53;;
6269;SDS011;3168;51.684;6.954;2024-02-26T06:56:30;1.93;;;1.80;;
6269;SDS011;3168;51.684;6.954;2024-02-26T06:58:56;2.80;;;2.60;;
6269;SDS011;3168;51.684;6.954;2024-02-26T07:01:22;1.83;;;1.83;;
6269;SDS011;3168;51.684;6.954;2024-02-26T07:03:49;2.00;;;1.90;;
6269;SDS011;3168;51.684;6.954;2024-02-26T07:06:20;2.70;;;1.50;;
6269;SDS011;3168;51.684;6.954;2024-02-26T07:08:46;1.70;;;1.70;;
6269;SDS011;3168;51.684;6.954;2024-02-26T07:11:11;2.60;;;1.92;;
6269;SDS011;3168;51.684;6.954;2024-02-26T07:13:37;1.50;;;1.50;;
6269;SDS011;3168;51.684;6.954;2024-02-26T07:16:03;2.00;;;2.00;;
6269;SDS011;3168;51.684;6.954;2024-02-26T07:18:30;1.27;;;1.27;;
6269;SDS011;3168;51.684;6.954;2024-02-26T07:20:55;1.30;;;1.30;;
6269;SDS011;3168;51.684;6.954;2024-02-26T07:23:21;1.93;;;1.73;;
6269;SDS011;3168;51.684;6.954;2024-02-26T07:25:47;3.20;;;1.40;;
6269;SDS011;3168;51.684;6.954;2024-02-26T07:28:13;1.60;;;1.60;;
6269;SDS011;3168;51.684;6.954;2024-02-26T07:30:39;1.87;;;1.77;;
6269;SDS011;3168;51.684;6.954;2024-02-26T07:33:05;1.70;;;1.70;;
6269;SDS011;3168;51.684;6.954;2024-02-26T07:35:31;1.53;;;1.53;;
6269;SDS011;3168;51.684;6.954;2024-02-26T07:37:57;3.27;;;2.70;;
6269;SDS011;3168;51.684;6.954;2024-02-26T07:40:23;1.80;;;1.63;;
6269;SDS011;3168;51.684;6.954;2024-02-26T07:42:48;1.80;;;1.70;;
6269;SDS011;3168;51.684;6.954;2024-02-26T07:45:15;2.90;;;2.40;;
6269;SDS011;3168;51.684;6.954;2024-02-26T07:47:40;1.70;;;1.60;;
6269;SDS011;3168;51.684;6.954;2024-02-26T07:50:07;1.50;;;1.40;;
6269;SDS011;3168;51.684;6.954;2024-02-26T07:52:33;2.07;;;2.03;;
6269;SDS011;3168;51.684;6.954;2024-02-26T07:54:59;1.50;;;1.50;;
6269;SDS011;3168;51.684;6.954;2024-02-26T07:57:24;1.97;;;1.87;;
6269;SDS011;3168;51.684;6.954;2024-02-26T07:59:50;1.20;;;1.20;;
6269;SDS011;3168;51.684;6.954;2024-02-26T08:02:16;1.10;;;1.10;;
6269;SDS011;3168;51.684;6.954;2024-02-26T08:04:42;1.30;;;1.30;;
6269;SDS011;3168;51.684;6.954;2024-02-26T08:07:08;1.37;;;1.37;;
6269;SDS011;3168;51.684;6.954;2024-02-26T08:09:34;1.10;;;1.10;;
6269;SDS011;3168;51.684;6.954;2024-02-26T08:11:59;1.48;;;1.48;;
6269;SDS011;3168;51.684;6.954;2024-02-26T08:14:25;1.67;;;1.67;;
6269;SDS011;3168;51.684;6.954;2024-02-26T08:16:51;1.30;;;1.30;;
6269;SDS011;3168;51.684;6.954;2024-02-26T08:19:17;1.63;;;1.53;;
6269;SDS011;3168;51.684;6.954;2024-02-26T08:21:43;1.50;;;1.40;;
6269;SDS011;3168;51.684;6.954;2024-02-26T08:24:08;1.77;;;1.77;;
6269;SDS011;3168;51.684;6.954;2024-02-26T08:26:34;1.53;;;1.53;;
6269;SDS011;3168;51.684;6.954;2024-02-26T08:29:00;1.40;;;1.40;;
6269;SDS011;3168;51.684;6.954;2024-02-26T08:31:26;1.57;;;1.57;;
6269;SDS011;3168;51.684;6.954;2024-02-26T08:33:52;4.30;;;1.30;;
6269;SDS011;3168;51.684;6.954;2024-02-26T08:36:18;1.60;;;1.50;;
6269;SDS011;3168;51.684;6.954;2024-02-26T08:38:43;1.60;;;1.50;;
6269;SDS011;3168;51.684;6.954;2024-02-26T08:41:09;2.20;;;1.33;;
6269;SDS011;3168;51.684;6.954;2024-02-26T08:43:35;1.17;;;1.07;;
6269;SDS011;3168;51.684;6.954;2024-02-26T08:46:01;1.50;;;1.40;;
6269;SDS011;3168;51.684;6.954;2024-02-26T08:48:27;2.60;;;1.83;;
6269;SDS011;3168;51.684;6.954;2024-02-26T08:50:53;1.50;;;1.40;;
6269;SDS011;3168;51.684;6.954;2024-02-26T08:53:19;1.50;;;1.50;;
6269;SDS011;3168;51.684;6.954;2024-02-26T08:55:44;1.23;;;1.17;;
6269;SDS011;3168;51.684;6.954;2024-02-26T08:58:10;1.70;;;1.60;;
6269;SDS011;3168;51.684;6.954;2024-02-26T09:00:36;1.13;;;1.13;;
6269;SDS011;3168;51.684;6.954;2024-02-26T09:03:02;1.70;;;1.60;;
6269;SDS011;3168;51.684;6.954;2024-02-26T09:05:28;2.03;;;1.07;;
6269;SDS011;3168;51.684;6.954;2024-02-26T09:07:54;1.07;;;0.97;;
6269;SDS011;3168;51.684;6.954;2024-02-26T09:10:20;1.80;;;1.60;;
6269;SDS011;3168;51.684;6.954;2024-02-26T09:12:45;2.20;;;2.10;;
6269;SDS011;3168;51.684;6.954;2024-02-26T09:15:11;1.77;;;1.67;;
6269;SDS011;3168;51.684;6.954;2024-02-26T09:17:37;1.70;;;1.60;;
6269;SDS011;3168;51.684;6.954;2024-02-26T09:20:03;1.50;;;1.50;;
6269;SDS011;3168;51.684;6.954;2024-02-26T09:22:29;2.00;;;1.90;;
6269;SDS011;3168;51.684;6.954;2024-02-26T09:24:55;1.17;;;1.17;;
6269;SDS011;3168;51.684;6.954;2024-02-26T09:27:21;1.37;;;1.37;;
6269;SDS011;3168;51.684;6.954;2024-02-26T09:29:47;1.50;;;1.40;;
6269;SDS011;3168;51.684;6.954;2024-02-26T09:32:13;2.00;;;2.00;;
6269;SDS011;3168;51.684;6.954;2024-02-26T09:34:40;2.50;;;2.30;;
6269;SDS011;3168;51.684;6.954;2024-02-26T09:37:05;2.10;;;2.00;;
6269;SDS011;3168;51.684;6.954;2024-02-26T09:39:31;1.47;;;1.37;;
6269;SDS011;3168;51.684;6.954;2024-02-26T09:41:57;1.70;;;1.70;;
6269;SDS011;3168;51.684;6.954;2024-02-26T09:44:23;1.80;;;1.70;;
6269;SDS011;3168;51.684;6.954;2024-02-26T09:46:53;7.43;;;1.60;;
6269;SDS011;3168;51.684;6.954;2024-02-26T09:49:21;1.50;;;1.40;;
6269;SDS011;3168;51.684;6.954;2024-02-26T09:51:49;1.73;;;1.60;;
6269;SDS011;3168;51.684;6.954;2024-02-26T09:54:15;1.30;;;1.30;;
6269;SDS011;3168;51.684;6.954;2024-02-26T09:56:41;1.53;;;1.53;;
6269;SDS011;3168;51.684;6.954;2024-02-26T09:59:10;1.97;;;1.50;;
6269;SDS011;3168;51.684;6.954;2024-02-26T10:01:33;1.40;;;1.40;;
6269;SDS011;3168;51.684;6.954;2024-02-26T10:03:58;1.20;;;1.20;;
6269;SDS011;3168;51.684;6.954;2024-02-26T10:06:26;1.50;;;1.40;;
6269;SDS011;3168;51.684;6.954;2024-02-26T10:08:52;1.47;;;1.47;;
6269;SDS011;3168;51.684;6.954;2024-02-26T10:11:22;2.17;;;2.10;;
6269;SDS011;3168;51.684;6.954;2024-02-26T10:13:48;2.80;;;2.30;;
6269;SDS011;3168;51.684;6.954;2024-02-26T10:16:15;2.17;;;2.07;;
6269;SDS011;3168;51.684;6.954;2024-02-26T10:18:45;1.93;;;1.83;;
6269;SDS011;3168;51.684;6.954;2024-02-26T10:21:13;2.57;;;2.47;;
6269;SDS011;3168;51.684;6.954;2024-02-26T10:23:38;2.03;;;2.03;;
6269;SDS011;3168;51.684;6.954;2024-02-26T10:26:04;2.37;;;2.27;;
6269;SDS011;3168;51.684;6.954;2024-02-26T10:28:30;2.10;;;2.00;;
6269;SDS011;3168;51.684;6.954;2024-02-26T10:30:56;1.63;;;1.50;;
6269;SDS011;3168;51.684;6.954;2024-02-26T10:33:22;2.93;;;2.83;;
6269;SDS011;3168;51.684;6.954;2024-02-26T10:35:48;2.73;;;2.63;;
6269;SDS011;3168;51.684;6.954;2024-02-26T10:38:13;3.17;;;2.97;;
6269;SDS011;3168;51.684;6.954;2024-02-26T10:40:39;2.40;;;2.30;;
6269;SDS011;3168;51.684;6.954;2024-02-26T10:43:05;2.47;;;2.33;;
6269;SDS011;3168;51.684;6.954;2024-02-26T10:45:31;2.00;;;2.00;;
6269;SDS011;3168;51.684;6.954;2024-02-26T10:47:57;2.97;;;2.73;;
6269;SDS011;3168;51.684;6.954;2024-02-26T10:50:22;2.90;;;2.80;;
6269;SDS011;3168;51.684;6.954;2024-02-26T10:52:48;3.30;;;3.10;;
6269;SDS011;3168;51.684;6.954;2024-02-26T10:55:15;3.27;;;3.03;;
6269;SDS011;3168;51.684;6.954;2024-02-26T10:57:41;2.40;;;2.30;;
6269;SDS011;3168;51.684;6.954;2024-02-26T11:00:07;3.80;;;3.50;;
6269;SDS011;3168;51.684;6.954;2024-02-26T11:02:33;2.90;;;2.80;;
6269;SDS011;3168;51.684;6.954;2024-02-26T11:05:01;3.23;;;3.13;;
6269;SDS011;3168;51.684;6.954;2024-02-26T11:07:25;3.23;;;3.03;;
6269;SDS011;3168;51.684;6.954;2024-02-26T11:09:51;3.93;;;3.30;;
6269;SDS011;3168;51.684;6.954;2024-02-26T11:12:17;2.83;;;2.63;;
6269;SDS011;3168;51.684;6.954;2024-02-26T11:14:44;5.43;;;3.90;;
6269;SDS011;3168;51.684;6.954;2024-02-26T11:17:09;10.17;;;4.40;;
6269;SDS011;3168;51.684;6.954;2024-02-26T11:19:35;3.57;;;3.27;;
6269;SDS011;3168;51.684;6.954;2024-02-26T11:22:01;5.07;;;4.57;;
6269;SDS011;3168;51.684;6.954;2024-02-26T11:24:26;3.03;;;2.90;;
6269;SDS011;3168;51.684;6.954;2024-02-26T11:26:54;4.40;;;3.73;;
6269;SDS011;3168;51.684;6.954;2024-02-26T11:29:20;3.23;;;3.03;;
6269;SDS011;3168;51.684;6.954;2024-02-26T11:31:45;3.53;;;3.33;;
6269;SDS011;3168;51.684;6.954;2024-02-26T11:34:11;4.67;;;3.43;;
6269;SDS011;3168;51.684;6.954;2024-02-26T11:36:36;8.40;;;3.63;;
6269;SDS011;3168;51.684;6.954;2024-02-26T11:39:03;5.37;;;3.50;;
6269;SDS011;3168;51.684;6.954;2024-02-26T11:41:28;3.87;;;3.67;;
6269;SDS011;3168;51.684;6.954;2024-02-26T11:43:59;3.77;;;3.57;;
6269;SDS011;3168;51.684;6.954;2024-02-26T11:46:25;4.20;;;3.80;;
6269;SDS011;3168;51.684;6.954;2024-02-26T11:48:51;5.00;;;4.60;;
6269;SDS011;3168;51.684;6.954;2024-02-26T11:51:16;3.43;;;3.17;;
6269;SDS011;3168;51.684;6.954;2024-02-26T11:53:46;3.10;;;2.90;;
6269;SDS011;3168;51.684;6.954;2024-02-26T11:56:19;3.10;;;2.90;;
6269;SDS011;3168;51.684;6.954;2024-02-26T11:58:46;3.57;;;3.23;;
6269;SDS011;3168;51.684;6.954;2024-02-26T12:03:49;5.27;;;3.37;;
6269;SDS011;3168;51.684;6.954;2024-02-26T12:06:15;4.60;;;3.60;;
6269;SDS011;3168;51.684;6.954;2024-02-26T12:08:41;3.87;;;3.57;;
6269;SDS011;3168;51.684;6.954;2024-02-26T12:11:14;3.23;;;3.03;;
6269;SDS011;3168;51.684;6.954;2024-02-26T12:13:33;3.93;;;3.60;;
6269;SDS011;3168;51.684;6.954;2024-02-26T12:15:59;3.40;;;3.10;;
6269;SDS011;3168;51.684;6.954;2024-02-26T12:18:25;3.90;;;3.70;;
6269;SDS011;3168;51.684;6.954;2024-02-26T12:21:01;3.57;;;3.37;;
6269;SDS011;3168;51.684;6.954;2024-02-26T12:23:27;4.80;;;4.40;;
6269;SDS011;3168;51.684;6.954;2024-02-26T12:25:53;4.00;;;3.70;;
6269;SDS011;3168;51.684;6.954;2024-02-26T12:28:18;3.50;;;3.00;;
6269;SDS011;3168;51.684;6.954;2024-02-26T12:30:44;6.03;;;3.80;;
6269;SDS011;3168;51.684;6.954;2024-02-26T12:33:10;9.30;;;4.77;;
6269;SDS011;3168;51.684;6.954;2024-02-26T12:35:36;3.83;;;3.60;;
6269;SDS011;3168;51.684;6.954;2024-02-26T12:38:02;5.83;;;3.60;;
6269;SDS011;3168;51.684;6.954;2024-02-26T12:40:28;3.50;;;3.30;;
6269;SDS011;3168;51.684;6.954;2024-02-26T12:42:54;3.30;;;3.20;;
6269;SDS011;3168;51.684;6.954;2024-02-26T12:45:20;4.30;;;4.00;;
6269;SDS011;3168;51.684;6.954;2024-02-26T12:47:45;2.90;;;2.80;;
6269;SDS011;3168;51.684;6.954;2024-02-26T12:50:11;3.27;;;3.17;;
6269;SDS011;3168;51.684;6.954;2024-02-26T12:52:45;3.73;;;3.53;;
6269;SDS011;3168;51.684;6.954;2024-02-26T12:55:13;2.50;;;2.40;;
6269;SDS011;3168;51.684;6.954;2024-02-26T12:57:37;3.23;;;3.03;;
6269;SDS011;3168;51.684;6.954;2024-02-26T13:00:04;3.10;;;2.90;;
6269;SDS011;3168;51.684;6.954;2024-02-26T13:02:30;2.37;;;2.27;;
6269;SDS011;3168;51.684;6.954;2024-02-26T13:04:55;3.17;;;2.97;;
6269;SDS011;3168;51.684;6.954;2024-02-26T13:07:21;2.73;;;2.63;;
6269;SDS011;3168;51.684;6.954;2024-02-26T13:09:47;3.33;;;3.13;;
6269;SDS011;3168;51.684;6.954;2024-02-26T13:12:13;2.33;;;2.23;;
6269;SDS011;3168;51.684;6.954;2024-02-26T13:14:39;3.33;;;3.13;;
6269;SDS011;3168;51.684;6.954;2024-02-26T13:17:05;2.50;;;2.40;;
6269;SDS011;3168;51.684;6.954;2024-02-26T13:19:30;3.73;;;2.80;;
6269;SDS011;3168;51.684;6.954;2024-02-26T13:22:03;2.30;;;2.20;;
6269;SDS011;3168;51.684;6.954;2024-02-26T13:24:22;4.30;;;3.90;;
6269;SDS011;3168;51.684;6.954;2024-02-26T13:26:53;2.00;;;2.00;;
6269;SDS011;3168;51.684;6.954;2024-02-26T13:29:19;2.67;;;2.57;;
6269;SDS011;3168;51.684;6.954;2024-02-26T13:31:45;1.83;;;1.77;;
6269;SDS011;3168;51.684;6.954;2024-02-26T13:34:11;2.50;;;2.40;;
6269;SDS011;3168;51.684;6.954;2024-02-26T13:36:36;2.43;;;2.33;;
6269;SDS011;3168;51.684;6.954;2024-02-26T13:39:02;4.33;;;3.93;;
6269;SDS011;3168;51.684;6.954;2024-02-26T13:41:28;1.90;;;1.90;;
6269;SDS011;3168;51.684;6.954;2024-02-26T13:43:54;2.50;;;2.40;;
6269;SDS011;3168;51.684;6.954;2024-02-26T13:46:20;2.23;;;2.23;;
6269;SDS011;3168;51.684;6.954;2024-02-26T13:48:46;11.07;;;2.80;;
6269;SDS011;3168;51.684;6.954;2024-02-26T13:51:11;3.00;;;2.40;;
6269;SDS011;3168;51.684;6.954;2024-02-26T13:53:37;3.10;;;2.90;;
6269;SDS011;3168;51.684;6.954;2024-02-26T13:56:03;2.60;;;2.50;;
6269;SDS011;3168;51.684;6.954;2024-02-26T13:58:29;2.20;;;2.10;;
6269;SDS011;3168;51.684;6.954;2024-02-26T14:00:55;2.50;;;2.40;;
6269;SDS011;3168;51.684;6.954;2024-02-26T14:03:21;2.30;;;2.20;;
6269;SDS011;3168;51.684;6.954;2024-02-26T14:05:47;2.37;;;2.20;;
6269;SDS011;3168;51.684;6.954;2024-02-26T14:08:12;2.50;;;2.30;;
6269;SDS011;3168;51.684;6.954;2024-02-26T14:10:38;2.40;;;2.30;;
6269;SDS011;3168;51.684;6.954;2024-02-26T14:13:04;2.03;;;2.03;;
6269;SDS011;3168;51.684;6.954;2024-02-26T14:15:30;2.60;;;2.50;;
6269;SDS011;3168;51.684;6.954;2024-02-26T14:17:56;2.60;;;2.40;;
6269;SDS011;3168;51.684;6.954;2024-02-26T14:20:22;3.47;;;3.27;;
6269;SDS011;3168;51.684;6.954;2024-02-26T14:22:48;2.43;;;2.33;;
6269;SDS011;3168;51.684;6.954;2024-02-26T14:25:13;4.93;;;2.47;;
6269;SDS011;3168;51.684;6.954;2024-02-26T14:27:39;2.43;;;2.33;;
6269;SDS011;3168;51.684;6.954;2024-02-26T14:30:06;1.93;;;1.93;;
6269;SDS011;3168;51.684;6.954;2024-02-26T14:32:32;2.50;;;2.40;;
6269;SDS011;3168;51.684;6.954;2024-02-26T14:34:58;16.10;;;3.00;;
6269;SDS011;3168;51.684;6.954;2024-02-26T14:37:24;2.97;;;2.77;;
6269;SDS011;3168;51.684;6.954;2024-02-26T14:39:50;2.80;;;2.70;;
6269;SDS011;3168;51.684;6.954;2024-02-26T14:42:16;2.80;;;2.70;;
6269;SDS011;3168;51.684;6.954;2024-02-26T14:44:43;3.27;;;3.17;;
6269;SDS011;3168;51.684;6.954;2024-02-26T14:47:08;3.10;;;2.90;;
6269;SDS011;3168;51.684;6.954;2024-02-26T14:49:34;4.23;;;4.03;;
6269;SDS011;3168;51.684;6.954;2024-02-26T14:52:00;3.97;;;3.73;;
6269;SDS011;3168;51.684;6.954;2024-02-26T14:54:27;2.90;;;2.80;;
6269;SDS011;3168;51.684;6.954;2024-02-26T14:56:54;4.10;;;3.70;;
6269;SDS011;3168;51.684;6.954;2024-02-26T14:59:20;4.43;;;4.03;;
6269;SDS011;3168;51.684;6.954;2024-02-26T15:01:46;6.13;;;5.23;;
6269;SDS011;3168;51.684;6.954;2024-02-26T15:04:12;6.07;;;4.00;;
6269;SDS011;3168;51.684;6.954;2024-02-26T15:06:40;4.20;;;3.80;;
6269;SDS011;3168;51.684;6.954;2024-02-26T15:09:06;5.10;;;4.67;;
6269;SDS011;3168;51.684;6.954;2024-02-26T15:11:32;4.50;;;4.20;;